sensor_id;sensor_type;location;lat;lon;timestamp;temperature;humidity
15131;DHT22;7666;50.920;4.628;2023-07-02T00:01:38;16.90;99.90
15131;DHT22;7666;50.920;4.628;2023-07-02T00:04:24;16.90;99.90
15131;DHT22;7666;50.920;4.628;2023-07-02T00:07:10;16.80;99.90
15131;DHT22;7666;50.920;4.628;2023-07-02T00:09:56;16.80;99.90
15131;DHT22;7666;50.920;4.628;2023-07-02T00:12:42;16.80;99.90
15131;DHT22;7666;50.920;4.628;2023-07-02T00:15:30;16.80;99.90
15131;DHT22;7666;50.920;4.628;2023-07-02T00:18:16;16.70;99.90
15131;DHT22;7666;50.920;4.628;2023-07-02T00:21:02;16.80;99.90
15131;DHT22;7666;50.920;4.628;2023-07-02T00:23:48;16.70;99.90
15131;DHT22;7666;50.920;4.628;2023-07-02T00:26:34;16.80;99.90
15131;DHT22;7666;50.920;4.628;2023-07-02T00:29:20;16.80;99.90
15131;DHT22;7666;50.920;4.628;2023-07-02T00:32:06;16.80;99.90
15131;DHT22;7666;50.920;4.628;2023-07-02T00:34:52;16.80;99.90
15131;DHT22;7666;50.920;4.628;2023-07-02T00:37:38;16.70;99.90
15131;DHT22;7666;50.920;4.628;2023-07-02T00:40:27;16.70;99.90
15131;DHT22;7666;50.920;4.628;2023-07-02T00:43:13;16.70;99.90
15131;DHT22;7666;50.920;4.628;2023-07-02T00:45:59;16.70;99.90
15131;DHT22;7666;50.920;4.628;2023-07-02T00:48:46;16.70;99.90
15131;DHT22;7666;50.920;4.628;2023-07-02T00:51:32;16.70;99.90
15131;DHT22;7666;50.920;4.628;2023-07-02T00:54:18;16.70;99.90
15131;DHT22;7666;50.920;4.628;2023-07-02T00:57:04;16.70;99.90
15131;DHT22;7666;50.920;4.628;2023-07-02T00:59:51;16.70;99.90
15131;DHT22;7666;50.920;4.628;2023-07-02T01:02:38;16.70;99.90
15131;DHT22;7666;50.920;4.628;2023-07-02T01:05:28;16.70;99.90
15131;DHT22;7666;50.920;4.628;2023-07-02T01:08:21;16.70;99.90
15131;DHT22;7666;50.920;4.628;2023-07-02T01:11:06;16.70;99.90
15131;DHT22;7666;50.920;4.628;2023-07-02T01:13:55;16.70;99.90
15131;DHT22;7666;50.920;4.628;2023-07-02T01:16:43;16.70;99.90
15131;DHT22;7666;50.920;4.628;2023-07-02T01:19:46;16.70;99.90
15131;DHT22;7666;50.920;4.628;2023-07-02T01:22:37;16.70;99.90
15131;DHT22;7666;50.920;4.628;2023-07-02T01:25:24;16.70;99.90
15131;DHT22;7666;50.920;4.628;2023-07-02T01:28:10;16.70;99.90
15131;DHT22;7666;50.920;4.628;2023-07-02T01:30:59;16.70;99.90
15131;DHT22;7666;50.920;4.628;2023-07-02T01:33:45;16.70;99.90
15131;DHT22;7666;50.920;4.628;2023-07-02T01:36:31;16.70;99.90
15131;DHT22;7666;50.920;4.628;2023-07-02T01:39:17;16.70;99.90
15131;DHT22;7666;50.920;4.628;2023-07-02T01:42:11;16.60;99.90
15131;DHT22;7666;50.920;4.628;2023-07-02T01:44:57;16.60;99.90
15131;DHT22;7666;50.920;4.628;2023-07-02T01:47:43;16.60;99.90
15131;DHT22;7666;50.920;4.628;2023-07-02T01:50:29;16.60;99.90
15131;DHT22;7666;50.920;4.628;2023-07-02T01:53:15;16.60;99.90
15131;DHT22;7666;50.920;4.628;2023-07-02T01:56:01;16.60;99.90
15131;DHT22;7666;50.920;4.628;2023-07-02T01:58:47;16.60;99.90
15131;DHT22;7666;50.920;4.628;2023-07-02T02:01:33;16.60;99.90
15131;DHT22;7666;50.920;4.628;2023-07-02T02:04:19;16.60;99.90
15131;DHT22;7666;50.920;4.628;2023-07-02T02:07:05;16.60;99.90
15131;DHT22;7666;50.920;4.628;2023-07-02T02:09:51;16.60;99.90
15131;DHT22;7666;50.920;4.628;2023-07-02T02:12:37;16.60;99.90
15131;DHT22;7666;50.920;4.628;2023-07-02T02:15:23;16.60;99.90
15131;DHT22;7666;50.920;4.628;2023-07-02T02:18:09;16.60;99.90
15131;DHT22;7666;50.920;4.628;2023-07-02T02:20:55;16.60;99.90
15131;DHT22;7666;50.920;4.628;2023-07-02T02:23:41;16.60;99.90
15131;DHT22;7666;50.920;4.628;2023-07-02T02:26:27;16.60;99.90
15131;DHT22;7666;50.920;4.628;2023-07-02T02:29:13;16.50;99.90
15131;DHT22;7666;50.920;4.628;2023-07-02T02:31:59;16.60;99.90
15131;DHT22;7666;50.920;4.628;2023-07-02T02:34:44;16.60;99.90
15131;DHT22;7666;50.920;4.628;2023-07-02T02:37:32;16.50;99.90
15131;DHT22;7666;50.920;4.628;2023-07-02T02:40:18;16.50;99.90
15131;DHT22;7666;50.920;4.628;2023-07-02T02:43:04;16.50;99.90
15131;DHT22;7666;50.920;4.628;2023-07-02T02:45:50;16.40;99.90
15131;DHT22;7666;50.920;4.628;2023-07-02T02:48:36;16.40;99.90
15131;DHT22;7666;50.920;4.628;2023-07-02T02:51:22;16.40;99.90
15131;DHT22;7666;50.920;4.628;2023-07-02T02:54:08;16.40;99.90
15131;DHT22;7666;50.920;4.628;2023-07-02T02:56:54;16.40;99.90
15131;DHT22;7666;50.920;4.628;2023-07-02T02:59:40;16.30;99.90
15131;DHT22;7666;50.920;4.628;2023-07-02T03:02:26;16.30;99.90
15131;DHT22;7666;50.920;4.628;2023-07-02T03:05:12;16.40;99.90
15131;DHT22;7666;50.920;4.628;2023-07-02T03:07:59;16.30;99.90
15131;DHT22;7666;50.920;4.628;2023-07-02T03:10:45;16.30;99.90
15131;DHT22;7666;50.920;4.628;2023-07-02T03:13:31;16.30;99.90
15131;DHT22;7666;50.920;4.628;2023-07-02T03:16:17;16.20;99.90
15131;DHT22;7666;50.920;4.628;2023-07-02T03:19:03;16.20;99.90
15131;DHT22;7666;50.920;4.628;2023-07-02T03:21:48;16.20;99.90
15131;DHT22;7666;50.920;4.628;2023-07-02T03:24:34;16.20;99.90
15131;DHT22;7666;50.920;4.628;2023-07-02T03:27:20;16.10;99.90
15131;DHT22;7666;50.920;4.628;2023-07-02T03:30:07;16.10;99.90
15131;DHT22;7666;50.920;4.628;2023-07-02T03:32:53;16.10;99.90
15131;DHT22;7666;50.920;4.628;2023-07-02T03:35:39;16.10;99.90
15131;DHT22;7666;50.920;4.628;2023-07-02T03:38:25;16.00;99.90
15131;DHT22;7666;50.920;4.628;2023-07-02T03:41:11;16.00;99.90
15131;DHT22;7666;50.920;4.628;2023-07-02T03:43:57;16.00;99.90
15131;DHT22;7666;50.920;4.628;2023-07-02T03:46:43;16.00;99.90
15131;DHT22;7666;50.920;4.628;2023-07-02T03:49:29;15.90;99.90
15131;DHT22;7666;50.920;4.628;2023-07-02T03:52:15;16.00;99.90
15131;DHT22;7666;50.920;4.628;2023-07-02T03:55:01;16.00;99.90
15131;DHT22;7666;50.920;4.628;2023-07-02T03:57:47;16.00;99.90
15131;DHT22;7666;50.920;4.628;2023-07-02T04:00:33;16.00;99.90
15131;DHT22;7666;50.920;4.628;2023-07-02T04:03:19;16.00;99.90
15131;DHT22;7666;50.920;4.628;2023-07-02T04:06:05;15.90;99.90
15131;DHT22;7666;50.920;4.628;2023-07-02T04:08:54;15.90;99.90
15131;DHT22;7666;50.920;4.628;2023-07-02T04:11:40;15.90;99.90
15131;DHT22;7666;50.920;4.628;2023-07-02T04:14:26;15.90;99.90
15131;DHT22;7666;50.920;4.628;2023-07-02T04:17:11;15.90;99.90
15131;DHT22;7666;50.920;4.628;2023-07-02T04:20:00;15.90;99.90
15131;DHT22;7666;50.920;4.628;2023-07-02T04:22:46;15.90;99.90
15131;DHT22;7666;50.920;4.628;2023-07-02T04:25:33;16.00;99.90
15131;DHT22;7666;50.920;4.628;2023-07-02T04:28:19;16.00;99.90
15131;DHT22;7666;50.920;4.628;2023-07-02T04:31:05;16.00;99.90
15131;DHT22;7666;50.920;4.628;2023-07-02T04:33:51;16.00;99.90
15131;DHT22;7666;50.920;4.628;2023-07-02T04:36:37;16.10;99.90
15131;DHT22;7666;50.920;4.628;2023-07-02T04:39:23;16.10;99.90
15131;DHT22;7666;50.920;4.628;2023-07-02T04:42:09;16.20;99.90
15131;DHT22;7666;50.920;4.628;2023-07-02T04:44:55;16.20;99.90
15131;DHT22;7666;50.920;4.628;2023-07-02T04:47:45;16.30;99.90
15131;DHT22;7666;50.920;4.628;2023-07-02T04:50:31;16.30;99.90
15131;DHT22;7666;50.920;4.628;2023-07-02T04:53:17;16.40;99.90
15131;DHT22;7666;50.920;4.628;2023-07-02T04:56:03;16.50;99.90
15131;DHT22;7666;50.920;4.628;2023-07-02T04:58:49;16.60;99.90
15131;DHT22;7666;50.920;4.628;2023-07-02T05:01:35;16.80;99.90
15131;DHT22;7666;50.920;4.628;2023-07-02T05:04:21;16.90;99.90
15131;DHT22;7666;50.920;4.628;2023-07-02T05:07:07;16.90;99.90
15131;DHT22;7666;50.920;4.628;2023-07-02T05:09:53;17.10;99.90
15131;DHT22;7666;50.920;4.628;2023-07-02T05:12:39;17.30;99.90
15131;DHT22;7666;50.920;4.628;2023-07-02T05:15:25;17.50;99.90
15131;DHT22;7666;50.920;4.628;2023-07-02T05:18:12;17.70;99.90
15131;DHT22;7666;50.920;4.628;2023-07-02T05:20:58;17.90;99.90
15131;DHT22;7666;50.920;4.628;2023-07-02T05:23:44;18.10;99.90
15131;DHT22;7666;50.920;4.628;2023-07-02T05:26:30;18.00;99.90
15131;DHT22;7666;50.920;4.628;2023-07-02T05:29:16;18.00;99.90
15131;DHT22;7666;50.920;4.628;2023-07-02T05:32:02;18.00;99.90
15131;DHT22;7666;50.920;4.628;2023-07-02T05:34:48;18.10;99.90
15131;DHT22;7666;50.920;4.628;2023-07-02T05:37:34;18.10;99.90
15131;DHT22;7666;50.920;4.628;2023-07-02T05:40:20;18.20;99.90
15131;DHT22;7666;50.920;4.628;2023-07-02T05:43:06;18.50;99.90
15131;DHT22;7666;50.920;4.628;2023-07-02T05:45:52;19.00;99.90
15131;DHT22;7666;50.920;4.628;2023-07-02T05:48:38;19.40;99.90
15131;DHT22;7666;50.920;4.628;2023-07-02T05:51:24;19.40;99.90
15131;DHT22;7666;50.920;4.628;2023-07-02T05:54:10;19.20;99.90
15131;DHT22;7666;50.920;4.628;2023-07-02T05:56:56;19.00;99.90
15131;DHT22;7666;50.920;4.628;2023-07-02T05:59:42;18.80;99.90
15131;DHT22;7666;50.920;4.628;2023-07-02T06:02:28;18.70;99.90
15131;DHT22;7666;50.920;4.628;2023-07-02T06:05:14;18.50;99.90
15131;DHT22;7666;50.920;4.628;2023-07-02T06:08:00;18.40;99.90
15131;DHT22;7666;50.920;4.628;2023-07-02T06:10:47;18.40;99.90
15131;DHT22;7666;50.920;4.628;2023-07-02T06:13:33;18.40;99.90
15131;DHT22;7666;50.920;4.628;2023-07-02T06:16:19;18.20;99.90
15131;DHT22;7666;50.920;4.628;2023-07-02T06:19:05;18.40;99.90
15131;DHT22;7666;50.920;4.628;2023-07-02T06:21:51;18.50;99.90
15131;DHT22;7666;50.920;4.628;2023-07-02T06:24:36;18.70;99.90
15131;DHT22;7666;50.920;4.628;2023-07-02T06:27:23;18.90;99.90
15131;DHT22;7666;50.920;4.628;2023-07-02T06:30:09;18.90;99.90
15131;DHT22;7666;50.920;4.628;2023-07-02T06:32:55;19.20;99.90
15131;DHT22;7666;50.920;4.628;2023-07-02T06:35:41;19.30;99.90
15131;DHT22;7666;50.920;4.628;2023-07-02T06:38:27;19.50;99.90
15131;DHT22;7666;50.920;4.628;2023-07-02T06:41:13;20.30;99.90
15131;DHT22;7666;50.920;4.628;2023-07-02T06:43:59;20.80;99.90
15131;DHT22;7666;50.920;4.628;2023-07-02T06:46:48;21.00;99.90
15131;DHT22;7666;50.920;4.628;2023-07-02T06:49:34;20.90;99.90
15131;DHT22;7666;50.920;4.628;2023-07-02T06:52:20;20.90;99.90
15131;DHT22;7666;50.920;4.628;2023-07-02T06:55:06;20.70;99.90
15131;DHT22;7666;50.920;4.628;2023-07-02T06:57:52;20.50;99.90
15131;DHT22;7666;50.920;4.628;2023-07-02T07:00:39;20.20;99.90
15131;DHT22;7666;50.920;4.628;2023-07-02T07:03:25;20.40;99.90
15131;DHT22;7666;50.920;4.628;2023-07-02T07:06:11;20.50;99.90
15131;DHT22;7666;50.920;4.628;2023-07-02T07:08:57;20.50;99.90
15131;DHT22;7666;50.920;4.628;2023-07-02T07:11:43;20.40;99.90
15131;DHT22;7666;50.920;4.628;2023-07-02T07:14:29;20.30;99.90
15131;DHT22;7666;50.920;4.628;2023-07-02T07:17:15;20.20;99.90
15131;DHT22;7666;50.920;4.628;2023-07-02T07:20:01;20.10;99.90
15131;DHT22;7666;50.920;4.628;2023-07-02T07:22:50;20.20;99.90
15131;DHT22;7666;50.920;4.628;2023-07-02T07:25:36;20.20;99.90
15131;DHT22;7666;50.920;4.628;2023-07-02T07:28:22;20.20;99.90
15131;DHT22;7666;50.920;4.628;2023-07-02T07:31:08;20.20;99.90
15131;DHT22;7666;50.920;4.628;2023-07-02T07:33:54;20.10;99.90
15131;DHT22;7666;50.920;4.628;2023-07-02T07:36:40;20.00;99.90
15131;DHT22;7666;50.920;4.628;2023-07-02T07:39:26;20.00;99.90
15131;DHT22;7666;50.920;4.628;2023-07-02T07:42:14;20.00;99.90
15131;DHT22;7666;50.920;4.628;2023-07-02T07:45:02;20.20;99.90
15131;DHT22;7666;50.920;4.628;2023-07-02T07:47:48;20.30;99.90
15131;DHT22;7666;50.920;4.628;2023-07-02T07:50:34;20.30;99.90
15131;DHT22;7666;50.920;4.628;2023-07-02T07:53:20;20.20;99.90
15131;DHT22;7666;50.920;4.628;2023-07-02T07:56:06;20.20;99.90
15131;DHT22;7666;50.920;4.628;2023-07-02T07:58:52;20.30;99.90
15131;DHT22;7666;50.920;4.628;2023-07-02T08:01:38;20.20;99.90
15131;DHT22;7666;50.920;4.628;2023-07-02T08:04:24;20.20;99.90
15131;DHT22;7666;50.920;4.628;2023-07-02T08:07:10;20.20;99.90
15131;DHT22;7666;50.920;4.628;2023-07-02T08:09:56;20.10;99.90
15131;DHT22;7666;50.920;4.628;2023-07-02T08:12:42;20.10;99.90
15131;DHT22;7666;50.920;4.628;2023-07-02T08:15:28;20.30;99.90
15131;DHT22;7666;50.920;4.628;2023-07-02T08:18:14;20.50;99.90
15131;DHT22;7666;50.920;4.628;2023-07-02T08:21:00;20.60;99.90
15131;DHT22;7666;50.920;4.628;2023-07-02T08:23:46;20.80;99.90
15131;DHT22;7666;50.920;4.628;2023-07-02T08:26:32;21.00;99.90
15131;DHT22;7666;50.920;4.628;2023-07-02T08:29:18;21.20;99.90
15131;DHT22;7666;50.920;4.628;2023-07-02T08:32:04;21.40;99.90
15131;DHT22;7666;50.920;4.628;2023-07-02T08:34:51;21.70;99.90
15131;DHT22;7666;50.920;4.628;2023-07-02T08:37:37;22.00;99.90
15131;DHT22;7666;50.920;4.628;2023-07-02T08:40:23;22.10;99.90
15131;DHT22;7666;50.920;4.628;2023-07-02T08:43:09;22.00;99.90
15131;DHT22;7666;50.920;4.628;2023-07-02T08:45:55;22.00;99.90
15131;DHT22;7666;50.920;4.628;2023-07-02T08:48:42;22.00;99.90
15131;DHT22;7666;50.920;4.628;2023-07-02T08:51:27;22.20;99.90
15131;DHT22;7666;50.920;4.628;2023-07-02T08:54:14;22.30;99.90
15131;DHT22;7666;50.920;4.628;2023-07-02T08:57:03;22.60;99.90
15131;DHT22;7666;50.920;4.628;2023-07-02T08:59:50;22.60;99.90
15131;DHT22;7666;50.920;4.628;2023-07-02T09:02:37;22.90;99.90
15131;DHT22;7666;50.920;4.628;2023-07-02T09:05:23;23.10;99.90
15131;DHT22;7666;50.920;4.628;2023-07-02T09:08:09;23.10;99.90
15131;DHT22;7666;50.920;4.628;2023-07-02T09:11:06;23.20;99.90
15131;DHT22;7666;50.920;4.628;2023-07-02T09:13:53;22.70;99.90
15131;DHT22;7666;50.920;4.628;2023-07-02T09:16:44;22.00;99.90
15131;DHT22;7666;50.920;4.628;2023-07-02T09:19:30;21.60;99.90
15131;DHT22;7666;50.920;4.628;2023-07-02T09:22:16;21.30;99.90
15131;DHT22;7666;50.920;4.628;2023-07-02T09:25:03;21.10;99.90
15131;DHT22;7666;50.920;4.628;2023-07-02T09:27:49;21.00;99.90
15131;DHT22;7666;50.920;4.628;2023-07-02T09:30:35;21.00;99.90
15131;DHT22;7666;50.920;4.628;2023-07-02T09:33:25;20.90;99.90
15131;DHT22;7666;50.920;4.628;2023-07-02T09:36:11;20.80;99.90
15131;DHT22;7666;50.920;4.628;2023-07-02T09:38:58;20.80;99.90
15131;DHT22;7666;50.920;4.628;2023-07-02T09:41:44;20.70;99.90
15131;DHT22;7666;50.920;4.628;2023-07-02T09:44:32;20.60;99.90
15131;DHT22;7666;50.920;4.628;2023-07-02T09:47:19;20.50;99.90
15131;DHT22;7666;50.920;4.628;2023-07-02T09:50:06;20.60;99.90
15131;DHT22;7666;50.920;4.628;2023-07-02T09:52:53;21.00;99.90
15131;DHT22;7666;50.920;4.628;2023-07-02T09:55:42;21.30;99.90
15131;DHT22;7666;50.920;4.628;2023-07-02T09:58:28;21.40;99.90
15131;DHT22;7666;50.920;4.628;2023-07-02T10:01:17;21.50;99.90
15131;DHT22;7666;50.920;4.628;2023-07-02T10:04:19;22.10;99.90
15131;DHT22;7666;50.920;4.628;2023-07-02T10:07:05;22.50;99.90
15131;DHT22;7666;50.920;4.628;2023-07-02T10:09:51;22.40;99.90
15131;DHT22;7666;50.920;4.628;2023-07-02T10:12:46;22.30;99.90
15131;DHT22;7666;50.920;4.628;2023-07-02T10:15:32;22.10;99.90
15131;DHT22;7666;50.920;4.628;2023-07-02T10:18:26;21.80;99.90
15131;DHT22;7666;50.920;4.628;2023-07-02T10:21:18;21.30;99.90
15131;DHT22;7666;50.920;4.628;2023-07-02T10:24:14;21.00;99.90
15131;DHT22;7666;50.920;4.628;2023-07-02T10:27:01;20.90;99.90
15131;DHT22;7666;50.920;4.628;2023-07-02T10:29:51;21.00;99.90
15131;DHT22;7666;50.920;4.628;2023-07-02T10:32:38;21.10;99.90
15131;DHT22;7666;50.920;4.628;2023-07-02T10:35:24;21.20;99.90
15131;DHT22;7666;50.920;4.628;2023-07-02T10:41:01;22.20;99.90
15131;DHT22;7666;50.920;4.628;2023-07-02T10:43:47;22.90;99.90
15131;DHT22;7666;50.920;4.628;2023-07-02T10:46:34;23.00;99.90
15131;DHT22;7666;50.920;4.628;2023-07-02T10:49:20;22.50;99.90
15131;DHT22;7666;50.920;4.628;2023-07-02T10:52:06;22.10;99.90
15131;DHT22;7666;50.920;4.628;2023-07-02T10:54:55;21.80;99.90
15131;DHT22;7666;50.920;4.628;2023-07-02T10:57:41;21.50;99.90
15131;DHT22;7666;50.920;4.628;2023-07-02T11:00:27;21.80;99.90
15131;DHT22;7666;50.920;4.628;2023-07-02T11:03:21;22.00;99.90
15131;DHT22;7666;50.920;4.628;2023-07-02T11:06:07;22.10;99.90
15131;DHT22;7666;50.920;4.628;2023-07-02T11:08:53;22.10;99.90
15131;DHT22;7666;50.920;4.628;2023-07-02T11:11:53;22.10;99.90
15131;DHT22;7666;50.920;4.628;2023-07-02T11:14:39;21.90;99.90
15131;DHT22;7666;50.920;4.628;2023-07-02T11:17:26;22.00;99.90
15131;DHT22;7666;50.920;4.628;2023-07-02T11:20:13;22.00;99.90
15131;DHT22;7666;50.920;4.628;2023-07-02T11:23:00;22.10;99.90
15131;DHT22;7666;50.920;4.628;2023-07-02T11:26:01;22.10;99.90
15131;DHT22;7666;50.920;4.628;2023-07-02T11:28:50;22.60;99.90
15131;DHT22;7666;50.920;4.628;2023-07-02T11:31:39;22.80;99.90
15131;DHT22;7666;50.920;4.628;2023-07-02T11:34:25;22.80;99.90
15131;DHT22;7666;50.920;4.628;2023-07-02T11:37:11;22.60;99.90
15131;DHT22;7666;50.920;4.628;2023-07-02T11:39:57;22.40;99.90
15131;DHT22;7666;50.920;4.628;2023-07-02T11:42:43;22.30;99.90
15131;DHT22;7666;50.920;4.628;2023-07-02T11:45:29;22.30;99.90
15131;DHT22;7666;50.920;4.628;2023-07-02T11:48:15;22.40;99.90
15131;DHT22;7666;50.920;4.628;2023-07-02T11:51:01;22.20;99.90
15131;DHT22;7666;50.920;4.628;2023-07-02T11:53:47;22.10;99.90
15131;DHT22;7666;50.920;4.628;2023-07-02T11:56:33;22.00;99.90
15131;DHT22;7666;50.920;4.628;2023-07-02T11:59:19;22.00;99.90
15131;DHT22;7666;50.920;4.628;2023-07-02T12:02:05;22.00;99.90
15131;DHT22;7666;50.920;4.628;2023-07-02T12:04:51;22.40;99.90
15131;DHT22;7666;50.920;4.628;2023-07-02T12:07:37;22.70;99.90
15131;DHT22;7666;50.920;4.628;2023-07-02T12:10:23;23.30;99.90
15131;DHT22;7666;50.920;4.628;2023-07-02T12:13:09;23.70;99.90
15131;DHT22;7666;50.920;4.628;2023-07-02T12:15:55;23.70;99.90
15131;DHT22;7666;50.920;4.628;2023-07-02T12:18:41;23.50;99.90
15131;DHT22;7666;50.920;4.628;2023-07-02T12:21:27;23.10;99.90
15131;DHT22;7666;50.920;4.628;2023-07-02T12:24:13;22.70;99.90
15131;DHT22;7666;50.920;4.628;2023-07-02T12:26:59;22.40;99.90
15131;DHT22;7666;50.920;4.628;2023-07-02T12:29:45;22.30;99.90
15131;DHT22;7666;50.920;4.628;2023-07-02T12:32:31;22.50;99.90
15131;DHT22;7666;50.920;4.628;2023-07-02T12:35:17;23.00;99.90
15131;DHT22;7666;50.920;4.628;2023-07-02T12:38:03;23.30;99.90
15131;DHT22;7666;50.920;4.628;2023-07-02T12:40:49;23.20;99.90
15131;DHT22;7666;50.920;4.628;2023-07-02T12:43:35;23.40;99.90
15131;DHT22;7666;50.920;4.628;2023-07-02T12:46:21;23.20;99.90
15131;DHT22;7666;50.920;4.628;2023-07-02T12:49:07;23.20;99.90
15131;DHT22;7666;50.920;4.628;2023-07-02T12:51:53;23.30;99.90
15131;DHT22;7666;50.920;4.628;2023-07-02T12:54:39;23.40;99.90
15131;DHT22;7666;50.920;4.628;2023-07-02T12:57:25;23.40;99.90
15131;DHT22;7666;50.920;4.628;2023-07-02T13:00:14;23.70;99.90
15131;DHT22;7666;50.920;4.628;2023-07-02T13:03:00;23.50;99.90
15131;DHT22;7666;50.920;4.628;2023-07-02T13:05:46;23.10;99.90
15131;DHT22;7666;50.920;4.628;2023-07-02T13:08:32;23.00;99.90
15131;DHT22;7666;50.920;4.628;2023-07-02T13:11:18;22.80;99.90
15131;DHT22;7666;50.920;4.628;2023-07-02T13:14:04;22.90;99.90
15131;DHT22;7666;50.920;4.628;2023-07-02T13:16:50;22.90;99.90
15131;DHT22;7666;50.920;4.628;2023-07-02T13:19:36;23.30;99.90
15131;DHT22;7666;50.920;4.628;2023-07-02T13:22:22;24.00;99.90
15131;DHT22;7666;50.920;4.628;2023-07-02T13:25:08;24.40;99.90
15131;DHT22;7666;50.920;4.628;2023-07-02T13:27:54;24.60;99.90
15131;DHT22;7666;50.920;4.628;2023-07-02T13:30:40;25.00;99.90
15131;DHT22;7666;50.920;4.628;2023-07-02T13:33:26;24.80;99.90
15131;DHT22;7666;50.920;4.628;2023-07-02T13:36:14;24.50;99.90
15131;DHT22;7666;50.920;4.628;2023-07-02T13:39:00;24.40;99.90
15131;DHT22;7666;50.920;4.628;2023-07-02T13:41:49;24.50;99.90
15131;DHT22;7666;50.920;4.628;2023-07-02T13:44:35;24.40;99.90
15131;DHT22;7666;50.920;4.628;2023-07-02T13:47:21;24.20;99.90
15131;DHT22;7666;50.920;4.628;2023-07-02T13:50:07;24.00;99.90
15131;DHT22;7666;50.920;4.628;2023-07-02T13:52:53;23.80;99.90
15131;DHT22;7666;50.920;4.628;2023-07-02T13:55:39;23.90;99.90
15131;DHT22;7666;50.920;4.628;2023-07-02T13:58:25;24.10;99.90
15131;DHT22;7666;50.920;4.628;2023-07-02T14:01:11;24.30;99.90
15131;DHT22;7666;50.920;4.628;2023-07-02T14:03:57;24.40;99.90
15131;DHT22;7666;50.920;4.628;2023-07-02T14:06:43;24.20;99.90
15131;DHT22;7666;50.920;4.628;2023-07-02T14:09:29;24.20;99.90
15131;DHT22;7666;50.920;4.628;2023-07-02T14:12:15;24.10;99.90
15131;DHT22;7666;50.920;4.628;2023-07-02T14:15:02;24.00;99.90
15131;DHT22;7666;50.920;4.628;2023-07-02T14:17:48;23.80;99.90
15131;DHT22;7666;50.920;4.628;2023-07-02T14:20:34;23.70;99.90
15131;DHT22;7666;50.920;4.628;2023-07-02T14:23:20;23.90;99.90
15131;DHT22;7666;50.920;4.628;2023-07-02T14:26:06;24.20;99.90
15131;DHT22;7666;50.920;4.628;2023-07-02T14:28:53;24.50;99.90
15131;DHT22;7666;50.920;4.628;2023-07-02T14:31:39;24.40;99.90
15131;DHT22;7666;50.920;4.628;2023-07-02T14:34:25;24.60;99.90
15131;DHT22;7666;50.920;4.628;2023-07-02T14:37:13;24.90;99.90
15131;DHT22;7666;50.920;4.628;2023-07-02T14:39:59;25.10;99.90
15131;DHT22;7666;50.920;4.628;2023-07-02T14:42:45;25.10;99.90
15131;DHT22;7666;50.920;4.628;2023-07-02T14:45:31;24.80;99.90
15131;DHT22;7666;50.920;4.628;2023-07-02T14:48:17;24.80;99.90
15131;DHT22;7666;50.920;4.628;2023-07-02T14:51:03;24.70;99.90
15131;DHT22;7666;50.920;4.628;2023-07-02T14:53:50;24.60;99.90
15131;DHT22;7666;50.920;4.628;2023-07-02T14:56:36;24.50;99.90
15131;DHT22;7666;50.920;4.628;2023-07-02T14:59:23;24.40;99.90
15131;DHT22;7666;50.920;4.628;2023-07-02T15:02:09;24.30;99.90
15131;DHT22;7666;50.920;4.628;2023-07-02T15:04:55;24.20;99.90
15131;DHT22;7666;50.920;4.628;2023-07-02T15:07:41;24.00;99.90
15131;DHT22;7666;50.920;4.628;2023-07-02T15:10:27;23.70;99.90
15131;DHT22;7666;50.920;4.628;2023-07-02T15:13:13;23.70;99.90
15131;DHT22;7666;50.920;4.628;2023-07-02T15:15:59;23.70;99.90
15131;DHT22;7666;50.920;4.628;2023-07-02T15:18:45;23.40;99.90
15131;DHT22;7666;50.920;4.628;2023-07-02T15:21:31;23.30;99.90
15131;DHT22;7666;50.920;4.628;2023-07-02T15:24:17;23.30;99.90
15131;DHT22;7666;50.920;4.628;2023-07-02T15:27:04;23.30;99.90
15131;DHT22;7666;50.920;4.628;2023-07-02T15:29:50;23.50;99.90
15131;DHT22;7666;50.920;4.628;2023-07-02T15:32:35;23.60;99.90
15131;DHT22;7666;50.920;4.628;2023-07-02T15:35:22;23.50;99.90
15131;DHT22;7666;50.920;4.628;2023-07-02T15:38:08;23.60;99.90
15131;DHT22;7666;50.920;4.628;2023-07-02T15:41:10;23.70;99.90
15131;DHT22;7666;50.920;4.628;2023-07-02T15:43:57;23.60;99.90
15131;DHT22;7666;50.920;4.628;2023-07-02T15:46:48;23.40;99.90
15131;DHT22;7666;50.920;4.628;2023-07-02T15:49:34;23.50;99.90
15131;DHT22;7666;50.920;4.628;2023-07-02T15:52:20;23.70;99.90
15131;DHT22;7666;50.920;4.628;2023-07-02T15:55:06;23.70;99.90
15131;DHT22;7666;50.920;4.628;2023-07-02T15:57:52;23.60;99.90
15131;DHT22;7666;50.920;4.628;2023-07-02T16:00:38;23.60;99.90
15131;DHT22;7666;50.920;4.628;2023-07-02T16:03:24;23.60;99.90
15131;DHT22;7666;50.920;4.628;2023-07-02T16:06:12;23.30;99.90
15131;DHT22;7666;50.920;4.628;2023-07-02T16:08:58;23.20;99.90
15131;DHT22;7666;50.920;4.628;2023-07-02T16:11:44;23.10;99.90
15131;DHT22;7666;50.920;4.628;2023-07-02T16:14:30;23.10;99.90
15131;DHT22;7666;50.920;4.628;2023-07-02T16:17:16;23.20;99.90
15131;DHT22;7666;50.920;4.628;2023-07-02T16:20:03;23.10;99.90
15131;DHT22;7666;50.920;4.628;2023-07-02T16:22:49;23.10;99.90
15131;DHT22;7666;50.920;4.628;2023-07-02T16:25:35;23.10;99.90
15131;DHT22;7666;50.920;4.628;2023-07-02T16:28:22;23.20;99.90
15131;DHT22;7666;50.920;4.628;2023-07-02T16:31:08;23.10;99.90
15131;DHT22;7666;50.920;4.628;2023-07-02T16:33:54;23.20;99.90
15131;DHT22;7666;50.920;4.628;2023-07-02T16:36:44;23.20;99.90
15131;DHT22;7666;50.920;4.628;2023-07-02T16:39:31;23.20;99.90
15131;DHT22;7666;50.920;4.628;2023-07-02T16:42:17;23.20;99.90
15131;DHT22;7666;50.920;4.628;2023-07-02T16:45:03;23.00;99.90
15131;DHT22;7666;50.920;4.628;2023-07-02T16:47:51;22.90;99.90
15131;DHT22;7666;50.920;4.628;2023-07-02T16:50:37;22.90;99.90
15131;DHT22;7666;50.920;4.628;2023-07-02T16:53:23;23.00;99.90
15131;DHT22;7666;50.920;4.628;2023-07-02T16:56:09;23.10;99.90
15131;DHT22;7666;50.920;4.628;2023-07-02T16:58:57;23.10;99.90
15131;DHT22;7666;50.920;4.628;2023-07-02T17:01:51;23.10;99.90
15131;DHT22;7666;50.920;4.628;2023-07-02T17:04:37;23.20;99.90
15131;DHT22;7666;50.920;4.628;2023-07-02T17:07:23;23.10;99.90
15131;DHT22;7666;50.920;4.628;2023-07-02T17:10:09;22.80;99.90
15131;DHT22;7666;50.920;4.628;2023-07-02T17:12:55;22.60;99.90
15131;DHT22;7666;50.920;4.628;2023-07-02T17:15:41;22.50;99.90
15131;DHT22;7666;50.920;4.628;2023-07-02T17:18:27;22.60;99.90
15131;DHT22;7666;50.920;4.628;2023-07-02T17:21:13;22.50;99.90
15131;DHT22;7666;50.920;4.628;2023-07-02T17:23:59;22.20;99.90
15131;DHT22;7666;50.920;4.628;2023-07-02T17:26:46;22.10;99.90
15131;DHT22;7666;50.920;4.628;2023-07-02T17:29:32;22.00;99.90
15131;DHT22;7666;50.920;4.628;2023-07-02T17:32:18;22.10;99.90
15131;DHT22;7666;50.920;4.628;2023-07-02T17:35:05;22.20;99.90
15131;DHT22;7666;50.920;4.628;2023-07-02T17:37:51;22.30;99.90
15131;DHT22;7666;50.920;4.628;2023-07-02T17:40:39;22.10;99.90
15131;DHT22;7666;50.920;4.628;2023-07-02T17:43:25;22.00;99.90
15131;DHT22;7666;50.920;4.628;2023-07-02T17:46:11;21.90;99.90
15131;DHT22;7666;50.920;4.628;2023-07-02T17:48:57;21.90;99.90
15131;DHT22;7666;50.920;4.628;2023-07-02T17:51:43;21.70;99.90